AirNav   Duncan Aviation - Near you to keep you 
flying
 
 1149 users online  

MN51 Bowers Airport
Stacy, Minnesota, USA

GOING TO STACY?


FAA INFORMATION EFFECTIVE 15 JULY 2021

Location

FAA Identifier: MN51
Lat/Long: 45-27-12.8690N 092-58-29.0000W
45-27.214483N 092-58.483333W
45.4535747,-92.9747222
(estimated)
Elevation: 909 ft. / 277 m (estimated)
Variation: 03E (1985)
From city: 4 miles N of STACY, MN
Time zone: UTC -5 (UTC -6 during Standard Time)
Zip code: 55079

Airport Operations

Airport use: Private use. Permission required prior to landing
Activation date: 08/1991
Control tower: no
ARTCC: MINNEAPOLIS CENTER
FSS: PRINCETON FLIGHT SERVICE STATION
Attendance: UNATNDD
Segmented circle: no

Airport Communications

UNICOM: 122.95
WX AWOS-3 at CBG (14 nm NW): 121.125 (763-689-9562)
WX AWOS-3 at ROS (15 nm N): 118.8 (320-358-3339)
WX AWOS-3 at OEO (15 nm SE): 119.925 (715-294-3845)

Nearby radio navigation aids

VOR radial/distance  VOR name  Freq  Var
GEPr036/25.0GOPHER VORTAC117.3006E
MSPr016/35.2MINNEAPOLIS VOR/DME115.3002E

 
NDB name  Hdg/Dist  Freq  Var  ID
RUSH CITY181/14.528202EROS .-. --- ...
PRINCETON101/27.436803EPNM .--. -. --
BIG DOCTOR230/33.720301WBXR -... -..- .-.

Airport Services

Runway Information

Runway 11/29

Dimensions: 2615 x 50 ft. / 797 x 15 m
Surface: turf, in fair condition
Runway edge markings: MKD WITH 1/2 ORANGE BARRELS.
RUNWAY 11  RUNWAY 29
Traffic pattern: leftleft
Markings: NSTDNSTD
Obstructions: 40 ft. trees, 100 ft. from runway, 100 ft. right of centerline, 2:1 slope to clear40 ft. trees, 300 ft. from runway, 100 ft. left of centerline, 7:1 slope to clear

Airport Ownership and Management from official FAA records

Ownership: Privately-owned
Owner: KENNETH BOWERS, SR
34950 GRAND AVE
STACY, MN 55079
Phone 651-462-4782
Manager: KENNETH BOWERS, SR
34950 GRAND AVE
STACY, MN 55079
Phone 651-462-4782

Airport Operational Statistics

Aircraft based on the field: 2
Single engine airplanes: 2
    

Additional Remarks

FOR CD CTC MINNEAPOLIS ARTCC AT 651-463-5588.

Instrument Procedures

There are no published instrument procedures at MN51.

Some nearby airports with instrument procedures:

KCBG - Cambridge Municipal Airport (14 nm NW)
KROS - Rush City Regional Airport (15 nm N)
KOEO - L O Simenstad Municipal Airport (15 nm SE)
KANE - Anoka County-Blaine Airport (Janes Field) (21 nm SW)
KGTG - Grantsburg Municipal Airport (24 nm NE)
 
Loc | Ops | Rwys | IFR | FBO | Links
Com | Nav | Svcs | Stats | Notes
Area around MN51 (Bowers Airport)
 
Road maps at: MapQuest Bing Google
 
Aerial photo
No photo
 
Sectional chart

 
Airport distance calculator
Flying to Bowers Airport? Find the distance to fly.

From to MN51

Sunrise and sunset
Times for 28-Jul-2021
 Local
(UTC-5)
 Zulu
(UTC)
Morning civil twilight05:1810:18
Sunrise05:5210:52
Sunset20:4401:44
Evening civil twilight21:1902:19

Current date and time
Zulu (UTC)  29-Jul-2021 01:05:23
Local (UTC-5)  28-Jul-2021 20:05:23
 
METAR
KCBG 
14nm NW 
290032Z AUTO 23005KT 10SM CLR 31/23 A2979 RMK AO2 LTG DSNT NE
KROS 
15nm N 
290043Z AUTO 00000KT 10SM TS BKN050 BKN060 BKN080 27/23 A2978 RMK AO2 LTG DSNT NW THRU E
KOEO 
15nm SE 
290055Z AUTO 21009G14KT 10SM CLR 29/23 A2978 RMK AO2 T02860228
KANE 
22nm SW 
290045Z 20010G16KT 10SM SCT200 32/25 A2977
KRNH 
26nm SE 
290055Z AUTO 21013G19KT 10SM CLR 28/21 A2975 RMK AO2 P0001 T02800212
KPNM 
27nm W 
290055Z AUTO 24003KT 10SM VCTS CLR 31/26 A2978 RMK AO2 LTG DSNT NE AND E
K21D 
28nm S 
290055Z AUTO 19007KT 10SM CLR 28/23 A2980 RMK AO2 LTG DSNT N
TAF
KRNH 
26nm SE 
282251Z 2823/2918 20009KT P6SM VCSH BKN100 TEMPO 2901/2903 34025G45KT 1SM +TSRA BR SCT025 BKN035CB FM290400 22006KT P6SM SCT200 FM291500 36008KT P6SM FEW150
NOTAMs
Click for the latest NOTAMs
NOTAMs are issued by the DoD/FAA and will open in a separate window not controlled by AirNav.

 

 
 

Would you like to see your business listed on this page?

 If your business provides an interesting product or service to pilots, flight crews, aircraft, or users of the Bowers Airport, you should consider listing it here.  To start the listing process, click on the button below
 
Add a business
 

Other Pages about Bowers Airport

Update a link
 
Copyright © AirNav, LLC. All rights reserved. Privacy Policy  Contact